createdAt,value
2022-08-22T00:00:46.184Z,1017.630371
2022-08-22T00:01:47.306Z,1017.633911
2022-08-22T00:02:41.412Z,1017.094482
2022-08-22T00:02:46.314Z,1017.540344
2022-08-22T00:02:52.600Z,1017.307922
2022-08-22T00:03:00.126Z,1017.540344
2022-08-22T00:03:06.741Z,1017.751465
2022-08-22T00:03:06.993Z,1017.653442
2022-08-22T00:03:07.364Z,1017.630371
2022-08-22T00:03:46.536Z,1017.626953
2022-08-22T00:04:44.703Z,1017.607727
2022-08-22T00:05:53.358Z,1017.607727
2022-08-22T00:06:53.665Z,1017.598694
2022-08-22T00:08:00.631Z,1017.579468
2022-08-22T00:08:55.858Z,1017.655884
2022-08-22T00:09:59.068Z,1017.499634
2022-08-22T00:10:55.087Z,1017.502563
2022-08-22T00:11:56.945Z,1017.626343
2022-08-22T00:13:42.365Z,1017.561523
2022-08-22T00:14:24.405Z,1017.511597
2022-08-22T00:15:41.969Z,1017.562988
2022-08-22T00:15:42.142Z,1017.562988
2022-08-22T00:15:42.181Z,1017.562988
2022-08-22T00:16:22.381Z,1017.524475
2022-08-22T00:17:18.980Z,1017.520569
2022-08-22T00:19:12.837Z,1017.500305
2022-08-22T00:20:11.929Z,1017.635498
2022-08-22T00:21:08.897Z,1017.525208
2022-08-22T00:22:08.174Z,1017.578918
2022-08-22T00:23:06.248Z,1017.578918
2022-08-22T00:24:05.421Z,1017.562073
2022-08-22T00:25:01.113Z,1017.67395
2022-08-22T00:26:04.216Z,1017.648743
2022-08-22T00:26:59.823Z,1017.605835
2022-08-22T00:28:05.298Z,1017.652222
2022-08-22T00:29:05.859Z,1017.542908
2022-08-22T00:30:07.645Z,1017.622864
2022-08-22T00:31:07.032Z,1017.629639
2022-08-22T00:32:07.950Z,1017.640991
2022-08-22T00:33:03.047Z,1017.599548
2022-08-22T00:34:07.604Z,1017.72229
2022-08-22T00:35:02.069Z,1017.636475
2022-08-22T00:36:02.173Z,1017.613098
2022-08-22T00:36:56.937Z,1017.562134
2022-08-22T00:38:57.683Z,1017.646973
2022-08-22T00:39:55.089Z,1017.607422
2022-08-22T00:40:59.620Z,1017.637939
2022-08-22T00:41:52.239Z,1017.614258
2022-08-22T00:43:53.162Z,1017.641357
2022-08-22T00:44:55.202Z,1017.574341
2022-08-22T00:45:57.262Z,1017.597046
2022-08-22T00:46:49.078Z,1017.66272
2022-08-22T00:48:46.893Z,1017.532654
2022-08-22T00:49:50.710Z,1017.583557
2022-08-22T00:50:43.189Z,1017.533752
2022-08-22T00:51:43.625Z,1017.560974
2022-08-22T00:52:38.832Z,1017.56897
2022-08-22T00:53:37.478Z,1017.564453
2022-08-22T00:55:46.212Z,1017.517883
2022-08-22T00:56:13.249Z,1017.593323
2022-08-22T00:57:12.508Z,1017.530029
2022-08-22T00:59:22.936Z,1017.618225
2022-08-22T00:59:23.194Z,1017.618225
2022-08-22T00:59:23.925Z,1017.618225
2022-08-22T01:00:10.656Z,1017.551941
2022-08-22T01:01:11.563Z,1017.566101
2022-08-22T01:02:07.993Z,1017.523621
2022-08-22T01:03:20.340Z,1017.514648
2022-08-22T01:04:20.633Z,1017.563171
2022-08-22T01:05:16.859Z,1017.499695
2022-08-22T01:06:23.270Z,1017.525818
2022-08-22T01:07:17.959Z,1017.475281
2022-08-22T01:09:18.576Z,1017.539307
2022-08-22T01:10:23.679Z,1017.550598
2022-08-22T01:11:18.899Z,1017.527222
2022-08-22T01:12:23.001Z,1017.51593
2022-08-22T01:13:17.377Z,1017.581482
2022-08-22T01:14:20.427Z,1017.565735
2022-08-22T01:14:34.903Z,1017.565735
2022-08-22T01:15:17.760Z,1017.557312
2022-08-22T01:16:18.806Z,1017.518799
2022-08-22T01:17:20.745Z,1017.491638
2022-08-22T01:18:24.536Z,1017.580505
2022-08-22T01:19:20.884Z,1017.544189
2022-08-22T01:20:24.587Z,1017.558777
2022-08-22T01:21:24.446Z,1017.59259
2022-08-22T01:22:24.493Z,1017.530396
2022-08-22T01:23:25.343Z,1017.545105
2022-08-22T01:24:24.116Z,1017.505371
2022-08-22T01:25:26.162Z,1017.539307
2022-08-22T01:26:19.679Z,1017.550659
2022-08-22T01:27:22.185Z,1017.593506
2022-08-22T01:28:23.489Z,1017.593506
2022-08-22T01:29:28.407Z,1017.608704
2022-08-22T01:29:28.519Z,1017.608704
2022-08-22T01:30:23.440Z,1017.624512
2022-08-22T01:31:22.203Z,1017.651611
2022-08-22T01:32:24.563Z,1017.678772
2022-08-22T01:33:25.812Z,1017.658325
2022-08-22T01:34:22.940Z,1017.548157
2022-08-22T01:35:27.828Z,1017.621033
2022-08-22T01:36:26.287Z,1017.612976
2022-08-22T01:37:24.836Z,1017.601624
2022-08-22T01:39:13.170Z,1017.59845
2022-08-22T01:40:04.299Z,1017.599487
2022-08-22T01:41:04.814Z,1017.518005
2022-08-22T01:42:06.216Z,1017.55188
2022-08-22T01:43:05.204Z,1017.509033
2022-08-22T01:44:10.466Z,1017.59259
2022-08-22T01:45:11.200Z,1017.548279
2022-08-22T01:46:11.221Z,1017.617188
2022-08-22T01:47:10.389Z,1017.56604
2022-08-22T01:48:08.661Z,1017.585571
2022-08-22T01:49:10.240Z,1017.599792
2022-08-22T01:50:07.326Z,1017.579224
2022-08-22T01:51:08.789Z,1017.558838
2022-08-22T01:52:07.920Z,1017.562622
2022-08-22T01:54:09.838Z,1017.538391
2022-08-22T01:55:13.690Z,1017.596375
2022-08-22T01:56:12.494Z,1017.534424
2022-08-22T01:57:09.371Z,1017.569214
2022-08-22T01:59:11.041Z,1017.63031
2022-08-22T02:00:09.961Z,1017.611145
2022-08-22T02:01:12.131Z,1017.564575
2022-08-22T02:02:29.353Z,1017.526367
2022-08-22T02:04:25.121Z,1017.541016
2022-08-22T02:05:28.649Z,1017.60968
2022-08-22T02:06:32.493Z,1017.570251
2022-08-22T02:07:31.634Z,1017.593872
2022-08-22T02:07:32.171Z,1017.593872
2022-08-22T02:08:35.105Z,1017.617798
2022-08-22T02:09:29.702Z,1017.58252
2022-08-22T02:10:31.422Z,1017.593872
2022-08-22T02:11:29.378Z,1017.608521
2022-08-22T02:12:30.008Z,1017.543091
2022-08-22T02:13:26.206Z,1017.581421
2022-08-22T02:14:30.004Z,1017.51001
2022-08-22T02:15:27.436Z,1017.502075
2022-08-22T02:16:35.028Z,1017.517029
2022-08-22T02:17:33.788Z,1017.518005
2022-08-22T02:18:31.826Z,1017.537048
2022-08-22T02:20:16.955Z,1017.554321
2022-08-22T02:20:57.829Z,1017.57135
2022-08-22T02:22:01.013Z,1017.456177
2022-08-22T02:22:57.585Z,1017.444885
2022-08-22T02:23:58.158Z,1017.52832
2022-08-22T02:25:02.629Z,1017.565613
2022-08-22T02:25:09.158Z,1017.565613
2022-08-22T02:26:01.314Z,1017.51001
2022-08-22T02:26:56.561Z,1017.490845
2022-08-22T02:27:57.648Z,1017.480713
2022-08-22T02:29:00.597Z,1017.429871
2022-08-22T02:30:00.421Z,1017.479553
2022-08-22T02:30:54.865Z,1017.386108
2022-08-22T02:31:57.367Z,1017.517029
2022-08-22T02:32:52.786Z,1017.470276
2022-08-22T02:33:53.240Z,1017.488281
2022-08-22T02:34:53.710Z,1017.437744
2022-08-22T02:35:54.086Z,1017.498657
2022-08-22T02:36:51.237Z,1017.458801
2022-08-22T02:37:51.115Z,1017.463135
2022-08-22T02:38:46.580Z,1017.427612
2022-08-22T02:39:50.470Z,1017.465942
2022-08-22T02:40:48.844Z,1017.380127
2022-08-22T02:41:52.636Z,1017.317505
2022-08-22T02:43:49.617Z,1017.375366
2022-08-22T02:44:46.997Z,1017.355042
2022-08-22T02:45:49.574Z,1017.355042
2022-08-22T02:46:41.305Z,1017.45874
2022-08-22T02:47:43.244Z,1017.378235
2022-08-22T02:48:37.856Z,1017.355042
2022-08-22T02:49:43.617Z,1017.399841
2022-08-22T02:50:38.292Z,1017.368164
2022-08-22T02:51:35.065Z,1017.406494
2022-08-22T02:52:35.390Z,1017.411194
2022-08-22T02:53:29.800Z,1017.425903
2022-08-22T02:54:31.815Z,1017.413147
2022-08-22T02:55:26.216Z,1017.451477
2022-08-22T02:56:27.781Z,1017.451477
2022-08-22T02:57:23.317Z,1017.374817
2022-08-22T02:59:18.700Z,1017.464111
2022-08-22T03:00:31.819Z,1017.387451
2022-08-22T03:00:32.309Z,1017.387451
2022-08-22T03:01:22.092Z,1017.391541
2022-08-22T03:02:16.626Z,1017.378235
2022-08-22T03:03:21.206Z,1017.402527
2022-08-22T03:04:13.743Z,1017.452209
2022-08-22T03:05:13.527Z,1017.382019
2022-08-22T03:06:11.646Z,1017.386597
2022-08-22T03:07:15.113Z,1017.437134
2022-08-22T03:08:14.553Z,1017.378235
2022-08-22T03:09:17.185Z,1017.34198
2022-08-22T03:10:19.376Z,1017.286804
2022-08-22T03:11:14.919Z,1017.255127
2022-08-22T03:13:00.925Z,1017.265259
2022-08-22T03:13:45.250Z,1017.208008
2022-08-22T03:14:44.337Z,1017.215515
2022-08-22T03:15:48.463Z,1017.23053
2022-08-22T03:16:43.674Z,1017.20636
2022-08-22T03:18:47.230Z,1017.264282
2022-08-22T03:19:48.174Z,1017.197693
2022-08-22T03:20:48.292Z,1017.231384
2022-08-22T03:21:49.458Z,1017.191528
2022-08-22T03:22:45.806Z,1017.296814
2022-08-22T03:23:46.815Z,1017.272949
2022-08-22T03:24:43.184Z,1017.306702
2022-08-22T03:25:48.493Z,1017.282959
2022-08-22T03:26:45.711Z,1017.22406
2022-08-22T03:27:54.532Z,1017.217468
2022-08-22T03:27:56.314Z,1017.217468
2022-08-22T03:28:59.363Z,1017.209412
2022-08-22T03:29:00.161Z,1017.209412
2022-08-22T03:29:54.955Z,1017.148621
2022-08-22T03:30:52.006Z,1017.106995
2022-08-22T03:31:53.494Z,1017.118408
2022-08-22T03:32:50.470Z,1017.123047
2022-08-22T03:33:54.673Z,1017.143982
2022-08-22T03:34:48.901Z,1017.085083
2022-08-22T03:35:49.874Z,1017.188904
2022-08-22T03:36:51.765Z,1017.145935
2022-08-22T03:37:57.904Z,1017.134705
2022-08-22T03:38:54.383Z,1017.114746
2022-08-22T03:39:58.580Z,1017.117615
2022-08-22T03:40:56.497Z,1017.113098
2022-08-22T03:41:59.349Z,1017.178406
2022-08-22T03:42:58.096Z,1017.113098
2022-08-22T03:44:00.319Z,1017.112122
2022-08-22T03:45:00.499Z,1017.161682
2022-08-22T03:46:05.213Z,1017.130005
2022-08-22T03:47:06.151Z,1017.106262
2022-08-22T03:48:04.740Z,1017.099121
2022-08-22T03:49:05.776Z,1017.102905
2022-08-22T03:50:05.681Z,1017.082275
2022-08-22T03:51:08.665Z,1017.069763
2022-08-22T03:52:07.744Z,1017.058655
2022-08-22T03:53:18.685Z,1016.997864
2022-08-22T03:53:19.316Z,1016.997864
2022-08-22T03:54:08.965Z,1017.009094
2022-08-22T03:55:07.822Z,1017.021606
2022-08-22T03:56:36.344Z,1017.079224
2022-08-22T03:57:17.543Z,1017.029053
2022-08-22T03:58:22.285Z,1017.011169
2022-08-22T03:58:27.546Z,1017.011169
2022-08-22T03:58:27.559Z,1017.011169
2022-08-22T03:59:19.315Z,1017.057983
2022-08-22T04:00:19.207Z,1017.062622
2022-08-22T04:01:17.478Z,1016.976624
2022-08-22T04:02:31.483Z,1017.030823
2022-08-22T04:02:41.755Z,1017.030823
2022-08-22T04:02:42.439Z,1017.030823
2022-08-22T04:03:15.996Z,1016.993347
2022-08-22T04:04:00.878Z,1017.009155
2022-08-22T04:05:00.851Z,1016.947571
2022-08-22T04:05:56.169Z,1017.0401
2022-08-22T04:06:57.506Z,1017.035461
2022-08-22T04:07:55.696Z,1017.042969
2022-08-22T04:08:59.711Z,1016.990662
2022-08-22T04:09:54.995Z,1017.052063
2022-08-22T04:10:57.387Z,1016.977417
2022-08-22T04:11:54.581Z,1017.023621
2022-08-22T04:12:55.444Z,1017.090332
2022-08-22T04:13:51.959Z,1017.108154
2022-08-22T04:14:52.967Z,1017.034668
2022-08-22T04:15:52.352Z,1017.098206
2022-08-22T04:16:53.345Z,1017.098206
2022-08-22T04:17:51.342Z,1017.086975
2022-08-22T04:18:50.763Z,1017.117493
2022-08-22T04:19:54.034Z,1017.093567
2022-08-22T04:21:00.053Z,1017.069763
2022-08-22T04:21:59.970Z,1017.087402
2022-08-22T04:24:00.064Z,1017.106384
2022-08-22T04:25:15.273Z,1017.098572
2022-08-22T04:26:12.594Z,1017.155945
2022-08-22T04:27:15.258Z,1017.109802
2022-08-22T04:28:08.274Z,1017.079346
2022-08-22T04:29:08.990Z,1017.117615
2022-08-22T04:30:07.079Z,1017.191101
2022-08-22T04:31:12.487Z,1017.148193
2022-08-22T04:32:14.396Z,1017.175293
2022-08-22T04:33:14.568Z,1017.125732
2022-08-22T04:34:08.803Z,1017.117615
2022-08-22T04:35:10.413Z,1017.106384
2022-08-22T04:36:06.258Z,1017.15271
2022-08-22T04:37:07.408Z,1017.090454
2022-08-22T04:38:04.443Z,1017.06842
2022-08-22T04:39:06.733Z,1017.128906
2022-08-22T04:40:06.269Z,1017.109802
2022-08-22T04:41:07.103Z,1017.178345
2022-08-22T04:42:30.771Z,1017.078003
2022-08-22T04:42:31.108Z,1017.078003
2022-08-22T04:42:31.644Z,1017.078003
2022-08-22T04:43:06.769Z,1017.073059
2022-08-22T04:44:03.001Z,1017.067322
2022-08-22T04:45:04.916Z,1017.091675
2022-08-22T04:46:01.354Z,1017.12616
2022-08-22T04:47:05.875Z,1017.133362
2022-08-22T04:49:07.534Z,1017.195251
2022-08-22T04:50:43.169Z,1017.227295
2022-08-22T04:53:23.163Z,1017.160767
2022-08-22T04:53:44.179Z,1017.140686
2022-08-22T04:54:41.261Z,1017.084351
2022-08-22T04:55:41.275Z,1017.133972
2022-08-22T04:56:35.482Z,1017.057922
2022-08-22T04:57:35.690Z,1017.198975
2022-08-22T04:59:33.505Z,1017.16394
2022-08-22T05:00:27.520Z,1017.154663
2022-08-22T05:01:25.775Z,1017.172607
2022-08-22T05:02:21.231Z,1017.241882
2022-08-22T05:04:28.084Z,1017.193054
2022-08-22T05:05:27.741Z,1017.215454
2022-08-22T05:06:27.677Z,1017.126099
2022-08-22T05:07:23.136Z,1017.129456
2022-08-22T05:08:25.603Z,1017.118408
2022-08-22T05:09:18.066Z,1017.129456
2022-08-22T05:10:21.041Z,1017.20282
2022-08-22T05:11:17.303Z,1017.159851
2022-08-22T05:12:20.532Z,1017.136169
2022-08-22T05:13:14.786Z,1017.198303
2022-08-22T05:14:19.382Z,1017.244568
2022-08-22T05:15:12.351Z,1017.263611
2022-08-22T05:16:13.701Z,1017.193542
2022-08-22T05:17:10.060Z,1017.255859
2022-08-22T05:18:08.455Z,1017.314697
2022-08-22T05:19:03.739Z,1017.263611
2022-08-22T05:20:05.145Z,1017.258911
2022-08-22T05:21:02.655Z,1017.278259
2022-08-22T05:21:59.092Z,1017.378723
2022-08-22T05:22:56.943Z,1017.321289
2022-08-22T05:23:55.392Z,1017.254395
2022-08-22T05:24:50.314Z,1017.281555
2022-08-22T05:25:52.612Z,1017.293213
2022-08-22T05:26:45.301Z,1017.227295
2022-08-22T05:28:09.875Z,1017.282959
2022-08-22T05:28:53.084Z,1017.271667
2022-08-22T05:29:53.475Z,1017.145447
2022-08-22T05:30:51.528Z,1017.269714
2022-08-22T05:31:51.689Z,1017.312622
2022-08-22T05:32:47.029Z,1017.336365
2022-08-22T05:33:50.003Z,1017.347656
2022-08-22T05:34:45.687Z,1017.293396
2022-08-22T05:35:49.561Z,1017.347656
2022-08-22T05:35:54.563Z,1017.347656
2022-08-22T05:35:58.078Z,1017.347656
2022-08-22T05:36:46.468Z,1017.263062
2022-08-22T05:37:46.563Z,1017.28479
2022-08-22T05:38:42.870Z,1017.300598
2022-08-22T05:39:42.983Z,1017.324036
2022-08-22T05:40:38.321Z,1017.324036
2022-08-22T05:41:38.404Z,1017.359497
2022-08-22T05:42:33.780Z,1017.305176
2022-08-22T05:43:38.615Z,1017.317383
2022-08-22T05:44:34.072Z,1017.282715
2022-08-22T05:45:39.629Z,1017.325684
2022-08-22T05:46:34.712Z,1017.306152
2022-08-22T05:47:38.975Z,1017.373291
2022-08-22T05:49:34.960Z,1017.292908
2022-08-22T05:50:33.656Z,1017.348022
2022-08-22T05:51:27.785Z,1017.368469
2022-08-22T05:52:30.368Z,1017.318909
2022-08-22T05:53:26.169Z,1017.319946
2022-08-22T05:54:22.391Z,1017.405945
2022-08-22T05:54:33.541Z,1017.405945
2022-08-22T05:54:34.348Z,1017.405945
2022-08-22T05:55:22.014Z,1017.368896
2022-08-22T05:56:21.414Z,1017.342957
2022-08-22T05:57:17.799Z,1017.304688
2022-08-22T05:59:19.301Z,1017.374695
2022-08-22T06:00:19.149Z,1017.328552
2022-08-22T06:01:15.952Z,1017.339844
2022-08-22T06:02:15.507Z,1017.366943
2022-08-22T06:03:12.707Z,1017.352234
2022-08-22T06:04:12.425Z,1017.39856
2022-08-22T06:05:11.996Z,1017.363403
2022-08-22T06:06:10.960Z,1017.285583
2022-08-22T06:07:06.290Z,1017.309204
2022-08-22T06:08:06.335Z,1017.325073
2022-08-22T06:09:01.825Z,1017.344299
2022-08-22T06:10:02.700Z,1017.363403
2022-08-22T06:10:58.149Z,1017.394043
2022-08-22T06:12:01.184Z,1017.374695
2022-08-22T06:12:54.508Z,1017.367981
2022-08-22T06:13:54.612Z,1017.411133
2022-08-22T06:14:53.017Z,1017.434448
2022-08-22T06:16:38.862Z,1017.456543
2022-08-22T06:16:47.556Z,1017.456543
2022-08-22T06:16:49.043Z,1017.456543
2022-08-22T06:17:21.721Z,1017.43512
2022-08-22T06:18:23.414Z,1017.403748
2022-08-22T06:19:25.664Z,1017.365356
2022-08-22T06:20:23.677Z,1017.465881
2022-08-22T06:21:25.308Z,1017.48053
2022-08-22T06:22:21.910Z,1017.482666
2022-08-22T06:24:23.622Z,1017.470093
2022-08-22T06:25:23.890Z,1017.508484
2022-08-22T06:26:21.532Z,1017.562805
2022-08-22T06:27:24.730Z,1017.578613
2022-08-22T06:28:19.043Z,1017.548279
2022-08-22T06:29:21.185Z,1017.535645
2022-08-22T06:30:19.134Z,1017.524414
2022-08-22T06:31:20.528Z,1017.50061
2022-08-22T06:32:44.291Z,1017.582092
2022-08-22T06:32:44.379Z,1017.582092
2022-08-22T06:32:44.418Z,1017.582092
2022-08-22T06:34:19.913Z,1017.585693
2022-08-22T06:35:17.896Z,1017.612854
2022-08-22T06:36:21.716Z,1017.55542
2022-08-22T06:37:16.268Z,1017.563171
2022-08-22T06:39:14.882Z,1017.586548
2022-08-22T06:40:17.003Z,1017.544067
2022-08-22T06:41:13.641Z,1017.532288
2022-08-22T06:42:16.939Z,1017.489746
2022-08-22T06:43:15.514Z,1017.556396
2022-08-22T06:44:16.955Z,1017.459167
2022-08-22T06:45:13.470Z,1017.466553
2022-08-22T06:46:17.747Z,1017.540588
2022-08-22T06:47:12.936Z,1017.505127
2022-08-22T06:48:14.353Z,1017.525513
2022-08-22T06:49:13.252Z,1017.552673
2022-08-22T06:50:14.775Z,1017.610718
2022-08-22T06:51:11.501Z,1017.610718
2022-08-22T06:52:15.666Z,1017.637878
2022-08-22T06:53:13.827Z,1017.576904
2022-08-22T06:54:13.345Z,1017.70874
2022-08-22T06:55:16.136Z,1017.638733
2022-08-22T06:56:10.631Z,1017.635742
2022-08-22T06:57:14.988Z,1017.686279
2022-08-22T06:59:11.267Z,1017.586853
2022-08-22T07:00:07.961Z,1017.575562
2022-08-22T07:01:11.308Z,1017.53717
2022-08-22T07:02:36.354Z,1017.525818
2022-08-22T07:04:13.914Z,1017.505615
2022-08-22T07:05:13.991Z,1017.494446
2022-08-22T07:06:10.103Z,1017.553223
2022-08-22T07:07:11.162Z,1017.490845
2022-08-22T07:08:06.586Z,1017.491638
2022-08-22T07:09:06.992Z,1017.542969
2022-08-22T07:10:02.563Z,1017.563354
2022-08-22T07:11:03.749Z,1017.494019
2022-08-22T07:12:00.073Z,1017.488342
2022-08-22T07:13:01.359Z,1017.486206
2022-08-22T07:13:57.555Z,1017.476013
2022-08-22T07:14:57.800Z,1017.493042
2022-08-22T07:15:53.848Z,1017.579712
2022-08-22T07:16:54.405Z,1017.539063
2022-08-22T07:17:50.594Z,1017.458618
2022-08-22T07:18:51.278Z,1017.491699
2022-08-22T07:19:47.290Z,1017.527893
2022-08-22T07:20:47.920Z,1017.454956
2022-08-22T07:21:44.244Z,1017.48822
2022-08-22T07:22:47.230Z,1017.570435
2022-08-22T07:24:39.355Z,1017.453491
2022-08-22T07:25:40.296Z,1017.466064
2022-08-22T07:26:36.544Z,1017.462646
2022-08-22T07:27:39.925Z,1017.514648
2022-08-22T07:29:36.998Z,1017.521851
2022-08-22T07:30:30.491Z,1017.511353
2022-08-22T07:31:31.757Z,1017.493103
2022-08-22T07:32:27.893Z,1017.49762
2022-08-22T07:34:25.058Z,1017.457214
2022-08-22T07:35:26.301Z,1017.509338
2022-08-22T07:36:23.305Z,1017.452454
2022-08-22T07:37:23.721Z,1017.504639
2022-08-22T07:38:19.903Z,1017.462646
2022-08-22T07:39:24.754Z,1017.50238
2022-08-22T07:40:19.657Z,1017.363098
2022-08-22T07:41:23.640Z,1017.396301
2022-08-22T07:42:17.603Z,1017.424927
2022-08-22T07:43:56.941Z,1017.422363
2022-08-22T07:45:31.589Z,1017.45459
2022-08-22T07:46:28.788Z,1017.483765
2022-08-22T07:47:29.986Z,1017.42926
2022-08-22T07:49:27.419Z,1017.506165
2022-08-22T07:51:07.525Z,1017.467346
2022-08-22T07:51:47.496Z,1017.533875
2022-08-22T07:52:45.054Z,1017.568054
2022-08-22T07:53:44.841Z,1017.558838
2022-08-22T07:54:40.064Z,1017.527832
2022-08-22T07:55:48.382Z,1017.555115
2022-08-22T07:55:49.639Z,1017.555115
2022-08-22T07:56:38.037Z,1017.524963
2022-08-22T07:57:33.088Z,1017.533386
2022-08-22T07:58:32.850Z,1017.525085
2022-08-22T07:59:28.046Z,1017.465881
2022-08-22T08:00:27.547Z,1017.558838
2022-08-22T08:01:23.566Z,1017.586121
2022-08-22T08:02:22.726Z,1017.594482
2022-08-22T08:04:17.767Z,1017.535583
2022-08-22T08:05:13.010Z,1017.570923
2022-08-22T08:06:12.746Z,1017.594482
2022-08-22T08:07:08.808Z,1017.586121
2022-08-22T08:09:03.682Z,1017.547607
2022-08-22T08:10:02.513Z,1017.510559
2022-08-22T08:11:02.213Z,1017.519165
2022-08-22T08:11:57.725Z,1017.526794
2022-08-22T08:13:02.395Z,1017.480652
2022-08-22T08:13:03.097Z,1017.480652
2022-08-22T08:13:55.693Z,1017.430542
2022-08-22T08:14:50.970Z,1017.438843
2022-08-22T08:15:51.316Z,1017.396729
2022-08-22T08:16:49.906Z,1017.444153
2022-08-22T08:17:45.438Z,1017.476563
2022-08-22T08:19:43.700Z,1017.399658
2022-08-22T08:20:39.187Z,1017.365173
2022-08-22T08:21:37.502Z,1017.362122
2022-08-22T08:22:37.888Z,1017.381165
2022-08-22T08:23:36.770Z,1017.362122
2022-08-22T08:23:39.703Z,1017.362122
2022-08-22T08:24:37.073Z,1017.346863
2022-08-22T08:24:42.855Z,1017.346863
2022-08-22T08:24:45.246Z,1017.346863
2022-08-22T08:25:34.915Z,1017.359924
2022-08-22T08:26:27.675Z,1017.329895
2022-08-22T08:27:30.342Z,1017.244507
2022-08-22T08:29:26.005Z,1017.275452
2022-08-22T08:30:18.775Z,1017.337769
2022-08-22T08:31:18.896Z,1017.252441
2022-08-22T08:32:14.603Z,1017.229614
2022-08-22T08:33:25.123Z,1017.276123
2022-08-22T08:33:26.262Z,1017.276123
2022-08-22T08:33:26.700Z,1017.276123
2022-08-22T08:34:13.924Z,1017.237793
2022-08-22T08:35:10.272Z,1017.227905
2022-08-22T08:36:13.596Z,1017.221375
2022-08-22T08:37:07.694Z,1017.226685
2022-08-22T08:39:04.993Z,1017.161987
2022-08-22T08:40:08.953Z,1017.190796
2022-08-22T08:41:03.365Z,1017.121887
2022-08-22T08:42:01.890Z,1017.100464
2022-08-22T08:43:59.767Z,1017.059387
2022-08-22T08:45:37.732Z,1017.002747
2022-08-22T08:46:18.124Z,1017.016602
2022-08-22T08:47:17.068Z,1016.955139
2022-08-22T08:49:13.269Z,1016.952332
2022-08-22T08:50:13.906Z,1016.945129
2022-08-22T08:51:10.031Z,1016.961426
2022-08-22T08:52:10.602Z,1016.942688
2022-08-22T08:53:06.741Z,1016.958435
2022-08-22T08:54:06.698Z,1016.923889
2022-08-22T08:55:02.291Z,1016.908691
2022-08-22T08:55:21.829Z,1016.908691
2022-08-22T08:55:22.044Z,1016.908691
2022-08-22T08:56:03.489Z,1016.913086
2022-08-22T08:56:59.140Z,1016.855225
2022-08-22T08:58:55.732Z,1016.953186
2022-08-22T08:59:56.379Z,1016.910156
2022-08-22T09:00:52.725Z,1016.899109
2022-08-22T09:01:51.162Z,1016.946472
2022-08-22T09:02:50.973Z,1016.938599
2022-08-22T09:04:45.345Z,1016.892578
2022-08-22T09:05:45.749Z,1016.904663
2022-08-22T09:06:42.600Z,1016.893127
2022-08-22T09:07:40.466Z,1016.854248
2022-08-22T09:09:37.684Z,1016.871216
2022-08-22T09:10:38.893Z,1016.856506
2022-08-22T09:11:35.211Z,1016.88031
2022-08-22T09:12:34.208Z,1016.892517
2022-08-22T09:13:40.603Z,1016.814758
2022-08-22T09:13:40.672Z,1016.814758
2022-08-22T09:14:33.702Z,1016.826477
2022-08-22T09:15:30.110Z,1016.854919
2022-08-22T09:15:37.546Z,1016.854919
2022-08-22T09:16:31.744Z,1016.820618
2022-08-22T09:17:30.420Z,1016.8526
2022-08-22T09:19:30.110Z,1016.813843
2022-08-22T09:20:24.623Z,1016.763184
2022-08-22T09:21:30.420Z,1016.708618
2022-08-22T09:22:23.963Z,1016.748413
2022-08-22T09:24:21.781Z,1016.780273
2022-08-22T09:25:18.156Z,1016.745422
2022-08-22T09:26:19.487Z,1016.718506
2022-08-22T09:27:16.173Z,1016.71521
2022-08-22T09:28:17.267Z,1016.598022
2022-08-22T09:29:13.829Z,1016.637451
2022-08-22T09:30:12.112Z,1016.594299
2022-08-22T09:31:16.662Z,1016.637451
2022-08-22T09:31:47.481Z,1016.637451
2022-08-22T09:32:13.187Z,1016.6922
2022-08-22T09:34:10.036Z,1016.611023
2022-08-22T09:35:06.615Z,1016.537292
2022-08-22T09:36:12.340Z,1016.580505
2022-08-22T09:36:12.642Z,1016.580505
2022-08-22T09:37:06.305Z,1016.549011
2022-08-22T09:39:05.727Z,1016.467163
2022-08-22T09:40:01.132Z,1016.483032
2022-08-22T09:41:04.503Z,1016.475525
2022-08-22T09:41:58.297Z,1016.471924
2022-08-22T09:42:58.016Z,1016.467896
2022-08-22T09:44:54.645Z,1016.476074
2022-08-22T09:45:57.590Z,1016.397644
2022-08-22T09:47:39.281Z,1016.363342
2022-08-22T09:49:18.420Z,1016.356262
2022-08-22T09:49:58.460Z,1016.341675
2022-08-22T09:51:04.659Z,1016.34491
2022-08-22T09:51:13.621Z,1016.34491
2022-08-22T09:51:28.784Z,1016.34491
2022-08-22T09:51:57.296Z,1016.31842
2022-08-22T09:52:53.398Z,1016.31842
2022-08-22T09:53:53.198Z,1016.318298
2022-08-22T09:54:48.804Z,1016.302673
2022-08-22T09:55:50.121Z,1016.373047
2022-08-22T09:56:45.487Z,1016.368958
2022-08-22T09:57:44.586Z,1016.408081
2022-08-22T09:59:43.779Z,1016.330017
2022-08-22T10:00:37.119Z,1016.349976
2022-08-22T10:01:37.183Z,1016.354065
2022-08-22T10:01:42.494Z,1016.354065
2022-08-22T10:02:35.954Z,1016.365906
2022-08-22T10:04:31.041Z,1016.338745
2022-08-22T10:05:35.238Z,1016.377563
2022-08-22T10:05:40.636Z,1016.377563
2022-08-22T10:05:43.926Z,1016.377563
2022-08-22T10:06:28.018Z,1016.299316
2022-08-22T10:07:24.197Z,1016.362366
2022-08-22T10:08:26.503Z,1016.303528
2022-08-22T10:09:26.427Z,1016.264526
2022-08-22T10:09:31.366Z,1016.264526
2022-08-22T10:09:32.234Z,1016.264526
2022-08-22T10:10:21.638Z,1016.31543
2022-08-22T10:11:16.940Z,1016.362732
2022-08-22T10:12:17.106Z,1016.382263
2022-08-22T10:13:12.334Z,1016.354492
2022-08-22T10:14:12.900Z,1016.307678
2022-08-22T10:15:09.030Z,1016.389709
2022-08-22T10:16:08.148Z,1016.291382
2022-08-22T10:17:07.156Z,1016.302979
2022-08-22T10:18:01.876Z,1016.330261
2022-08-22T10:19:57.368Z,1016.28772
2022-08-22T10:20:57.617Z,1016.268127
2022-08-22T10:21:53.096Z,1016.287598
2022-08-22T10:22:55.375Z,1016.299316
2022-08-22T10:24:51.233Z,1016.291748
2022-08-22T10:25:44.120Z,1016.244751
2022-08-22T10:26:44.055Z,1016.201721
2022-08-22T10:27:39.168Z,1016.256531
2022-08-22T10:29:34.373Z,1016.283875
2022-08-22T10:30:33.901Z,1016.189819
2022-08-22T10:31:33.993Z,1016.221313
2022-08-22T10:32:27.266Z,1016.209534
2022-08-22T10:34:23.171Z,1016.205505
2022-08-22T10:35:22.423Z,1016.260315
2022-08-22T10:36:17.525Z,1016.236633
2022-08-22T10:37:17.546Z,1016.197632
2022-08-22T10:37:23.833Z,1016.197632
2022-08-22T10:38:15.389Z,1016.220764
2022-08-22T10:39:11.808Z,1016.291382
2022-08-22T10:40:11.153Z,1016.232971
2022-08-22T10:41:09.489Z,1016.229126
2022-08-22T10:42:07.085Z,1016.229126
2022-08-22T10:44:38.231Z,1016.300049